Time;durP1;ratioP1;P1;durP2;ratioP2;P2;SDS_P1;SDS_P2;PMS_P1;PMS_P2;Temp;Humidity;BMP_temperature;BMP_pressure;BME280_temperature;BME280_humidity;BME280_pressure;Samples;Min_cycle;Max_cycle;Signal;HPM_P1;HPM_P2
2022/01/09 00:02:20;;;;;;;;;;;;;;;6.98;71.27;98610.00;5142526;27;56355;-82
2022/01/09 00:04:46;;;;;;;;;;;;;;;6.99;71.60;98611.69;5141598;27;55176;-81
2022/01/09 00:07:11;;;;;;;;;;;;;;;6.98;71.39;98615.13;5142329;27;50139;-82
2022/01/09 00:09:37;;;;;;;;;;;;;;;6.99;71.38;98611.69;5142350;27;54399;-82
2022/01/09 00:12:03;;;;;;;;;;;;;;;6.99;71.85;98606.53;5142952;27;26847;-82
2022/01/09 00:14:28;;;;;;;;;;;;;;;7.01;71.80;98609.88;5144112;27;26800;-82
2022/01/09 00:16:53;;;;;;;;;;;;;;;7.01;71.88;98599.63;5145527;27;37679;-81
2022/01/09 00:19:18;;;;;;;;;;;;;;;7.00;71.53;98598.78;5144942;27;37812;-82
2022/01/09 00:21:43;;;;;;;;;;;;;;;7.01;71.74;98594.50;5143161;27;56202;-82
2022/01/09 00:24:09;;;;;;;;;;;;;;;6.99;71.47;98606.53;5142512;27;53136;-82
2022/01/09 00:26:34;;;;;;;;;;;;;;;6.97;71.67;98603.22;5142172;27;27002;-82
2022/01/09 00:29:00;;;;;;;;;;;;;;;6.95;71.55;98599.88;5141252;27;54472;-81
2022/01/09 00:31:25;;;;;;;;;;;;;;;6.94;71.87;98604.19;5142704;27;26834;-80
2022/01/09 00:33:50;;;;;;;;;;;;;;;6.91;71.66;98603.47;5141505;27;55065;-82
2022/01/09 00:36:15;;;;;;;;;;;;;;;6.90;71.66;98606.97;5142760;27;46971;-83
2022/01/09 00:38:40;;;;;;;;;;;;;;;6.91;71.60;98600.91;5142916;27;26954;-82
2022/01/09 00:41:05;;;;;;;;;;;;;;;6.91;71.60;98593.22;5142121;27;26974;-81
2022/01/09 00:43:31;;;;;;;;;;;;;;;6.91;72.23;98582.97;5140968;27;54627;-81
2022/01/09 00:45:56;;;;;;;;;;;;;;;6.92;72.14;98584.63;5122260;27;28122;-82
2022/01/09 00:48:21;;;;;;;;;;;;;;;6.94;72.10;98572.53;5140789;27;53308;-82
2022/01/09 00:50:47;;;;;;;;;;;;;;;6.91;72.18;98582.97;5142924;27;56002;-83
2022/01/09 00:53:12;;;;;;;;;;;;;;;6.90;72.19;98581.31;5144047;27;34717;-82
2022/01/09 00:55:37;;;;;;;;;;;;;;;6.89;72.38;98582.22;5141557;27;55848;-83
2022/01/09 00:58:02;;;;;;;;;;;;;;;6.88;72.19;98580.53;5142428;27;26768;-82
2022/01/09 01:00:27;;;;;;;;;;;;;;;6.86;72.04;98577.22;5142651;27;26850;-83
2022/01/09 01:02:53;;;;;;;;;;;;;;;6.86;72.40;98585.72;5143147;27;26989;-83
2022/01/09 01:05:18;;;;;;;;;;;;;;;6.89;72.61;98589.91;5141619;27;27112;-82
2022/01/09 01:07:43;;;;;;;;;;;;;;;6.91;72.66;98590.66;5141446;27;27030;-82
2022/01/09 01:10:09;;;;;;;;;;;;;;;6.94;72.72;98599.03;5139652;27;55985;-82
2022/01/09 01:12:34;;;;;;;;;;;;;;;6.99;72.16;98596.28;5143118;27;26861;-82
2022/01/09 01:15:00;;;;;;;;;;;;;;;7.01;72.06;98599.63;5141796;27;36084;-82
2022/01/09 01:17:25;;;;;;;;;;;;;;;7.03;72.00;98592.66;5140692;27;27047;-82
2022/01/09 01:19:51;;;;;;;;;;;;;;;7.04;72.30;98596.91;5123941;27;28473;-81
2022/01/09 01:22:17;;;;;;;;;;;;;;;7.03;71.97;98602.94;5143207;27;26881;-81
2022/01/09 01:24:42;;;;;;;;;;;;;;;7.01;71.68;98620.94;5141721;27;33475;-80
2022/01/09 01:27:08;;;;;;;;;;;;;;;6.97;72.75;98614.31;5142621;27;26785;-80
2022/01/09 01:29:35;;;;;;;;;;;;;;;6.94;72.61;98613.59;5143493;27;27609;-82
2022/01/09 01:32:00;;;;;;;;;;;;;;;6.94;73.24;98618.75;5144255;27;26440;-82
2022/01/09 01:34:25;;;;;;;;;;;;;;;6.93;72.91;98607.66;5142290;27;48963;-81
2022/01/09 01:36:50;;;;;;;;;;;;;;;6.99;72.28;98616.81;5141238;27;26886;-81
2022/01/09 01:39:16;;;;;;;;;;;;;;;7.02;72.53;98626.94;5141680;27;28943;-81
2022/01/09 01:41:41;;;;;;;;;;;;;;;7.01;72.37;98630.41;5140758;27;27021;-81
2022/01/09 01:44:10;;;;;;;;;;;;;;;7.00;72.56;98628.75;5139973;27;56741;-80
2022/01/09 01:46:37;;;;;;;;;;;;;;;7.02;72.87;98619.22;5144996;27;26870;-80
2022/01/09 01:49:02;;;;;;;;;;;;;;;7.04;72.29;98625.13;5145541;27;26838;-80
2022/01/09 01:51:28;;;;;;;;;;;;;;;7.05;72.22;98631.94;5143753;27;26981;-81
2022/01/09 01:53:55;;;;;;;;;;;;;;;7.06;72.51;98638.72;5143684;27;26840;-81
2022/01/09 01:56:21;;;;;;;;;;;;;;;7.05;72.26;98634.50;5140961;27;26857;-81
2022/01/09 01:58:47;;;;;;;;;;;;;;;7.06;72.24;98628.44;5141082;27;27019;-80
2022/01/09 02:01:12;;;;;;;;;;;;;;;7.06;72.63;98638.72;5142243;27;26835;-81
2022/01/09 02:03:38;;;;;;;;;;;;;;;7.07;72.34;98630.13;5141893;27;26757;-81
2022/01/09 02:06:04;;;;;;;;;;;;;;;7.09;72.72;98628.31;5142912;27;26825;-81
2022/01/09 02:08:30;;;;;;;;;;;;;;;7.07;72.56;98635.25;5142529;27;26961;-81
2022/01/09 02:10:55;;;;;;;;;;;;;;;7.05;72.95;98642.22;5141248;27;26920;-81
2022/01/09 02:13:21;;;;;;;;;;;;;;;7.04;72.40;98641.38;5139646;27;56125;-80
2022/01/09 02:15:47;;;;;;;;;;;;;;;7.01;72.67;98646.63;5140449;27;26759;-81
2022/01/09 02:18:15;;;;;;;;;;;;;;;6.98;72.95;98646.75;5140670;27;27031;-82
2022/01/09 02:20:41;;;;;;;;;;;;;;;6.99;72.81;98647.59;5142217;27;26800;-81
2022/01/09 02:23:08;;;;;;;;;;;;;;;6.97;73.42;98654.56;5142948;27;27123;-81
2022/01/09 02:25:33;;;;;;;;;;;;;;;6.97;73.85;98654.56;5143712;27;26809;-81
2022/01/09 02:27:59;;;;;;;;;;;;;;;6.97;72.83;98657.94;5143345;27;26729;-80
2022/01/09 02:30:24;;;;;;;;;;;;;;;6.97;72.69;98662.25;5140084;27;54556;-82
2022/01/09 02:32:49;;;;;;;;;;;;;;;6.97;72.78;98664.81;5140238;27;27306;-82
2022/01/09 02:35:14;;;;;;;;;;;;;;;6.97;73.42;98664.81;5140825;27;26582;-82
2022/01/09 02:37:40;;;;;;;;;;;;;;;6.97;73.52;98680.22;5141388;27;26835;-82
2022/01/09 02:40:06;;;;;;;;;;;;;;;6.99;73.13;98673.25;5142463;27;26970;-81
2022/01/09 02:42:32;;;;;;;;;;;;;;;7.00;73.43;98686.03;5141377;27;27542;-81
2022/01/09 02:44:57;;;;;;;;;;;;;;;7.02;73.16;98688.53;5145956;27;26789;-82
2022/01/09 02:47:23;;;;;;;;;;;;;;;7.05;72.84;98693.53;5146845;27;26827;-81
2022/01/09 02:49:52;;;;;;;;;;;;;;;7.06;73.49;98700.31;5143716;27;27005;-82
2022/01/09 02:52:32;;;;;;;;;;;;;;;7.05;73.87;98698.69;5140217;27;26985;-82
2022/01/09 02:55:14;;;;;;;;;;;;;;;7.07;73.90;98704.56;5140594;27;26959;-82
2022/01/09 02:57:44;;;;;;;;;;;;;;;7.08;73.42;98724.19;5139782;27;26885;-83
2022/01/09 03:00:11;;;;;;;;;;;;;;;7.10;73.76;98718.09;5140336;27;26806;-83
2022/01/09 03:02:37;;;;;;;;;;;;;;;7.10;73.63;98722.38;5140773;27;27010;-82
2022/01/09 03:05:02;;;;;;;;;;;;;;;7.11;73.87;98716.34;5140659;27;26795;-83
2022/01/09 03:07:27;;;;;;;;;;;;;;;7.12;73.86;98728.31;5139224;27;28088;-83
2022/01/09 03:09:53;;;;;;;;;;;;;;;7.13;73.60;98722.25;5140899;27;26960;-82
2022/01/09 03:12:19;;;;;;;;;;;;;;;7.11;72.90;98740.28;5143205;27;27254;-83
2022/01/09 03:14:46;;;;;;;;;;;;;;;7.11;73.07;98740.28;5141989;27;26798;-81
2022/01/09 03:17:11;;;;;;;;;;;;;;;7.10;73.93;98737.78;5139765;27;26731;-82
2022/01/09 03:19:36;;;;;;;;;;;;;;;7.12;74.13;98743.69;5140698;27;26841;-82
2022/01/09 03:22:01;;;;;;;;;;;;;;;7.11;73.57;98749.72;5140110;27;55173;-81
2022/01/09 03:24:26;;;;;;;;;;;;;;;7.12;74.20;98761.66;5140755;27;26776;-82
2022/01/09 03:26:51;;;;;;;;;;;;;;;7.14;73.53;98765.00;5140100;27;57340;-82
2022/01/09 03:29:17;;;;;;;;;;;;;;;7.14;73.53;98759.84;5140390;27;53259;-81
2022/01/09 03:31:42;;;;;;;;;;;;;;;7.16;73.50;98769.16;5138889;27;57244;-81
2022/01/09 03:34:07;;;;;;;;;;;;;;;7.19;73.85;98768.19;5142469;27;54125;-82
2022/01/09 03:36:32;;;;;;;;;;;;;;;7.20;74.78;98759.56;5143418;27;55980;-82
2022/01/09 03:38:58;;;;;;;;;;;;;;;7.23;74.29;98764.59;5145111;27;26651;-81
2022/01/09 03:41:23;;;;;;;;;;;;;;;7.24;74.24;98776.50;5147426;27;27080;-82
2022/01/09 03:43:49;;;;;;;;;;;;;;;7.28;73.72;98767.78;5146213;27;34118;-81
2022/01/09 03:46:15;;;;;;;;;;;;;;;7.30;74.48;98781.38;5147300;27;26802;-81
2022/01/09 03:48:40;;;;;;;;;;;;;;;7.31;73.58;98777.91;5147099;27;27049;-81
2022/01/09 03:51:05;;;;;;;;;;;;;;;7.33;74.56;98788.13;5143536;27;27887;-82
2022/01/09 03:53:31;;;;;;;;;;;;;;;7.38;73.96;98794.72;5142691;27;27073;-82
2022/01/09 03:55:57;;;;;;;;;;;;;;;7.41;73.95;98794.59;5142888;27;27059;-82
2022/01/09 03:58:22;;;;;;;;;;;;;;;7.45;74.07;98800.41;5142974;27;26896;-81
2022/01/09 04:00:47;;;;;;;;;;;;;;;7.48;74.19;98820.81;5141850;27;50433;-80
2022/01/09 04:03:13;;;;;;;;;;;;;;;7.51;74.23;98826.66;5141973;27;26765;-81
2022/01/09 04:05:38;;;;;;;;;;;;;;;7.53;74.40;98830.00;5142970;27;26872;-80
2022/01/09 04:08:03;;;;;;;;;;;;;;;7.57;74.18;98830.72;5143697;27;27560;-80
2022/01/09 04:10:30;;;;;;;;;;;;;;;7.59;74.59;98829.72;5142412;27;27169;-79
2022/01/09 04:12:59;;;;;;;;;;;;;;;7.62;74.49;98839.88;5142467;27;27145;-79
2022/01/09 04:15:25;;;;;;;;;;;;;;;7.64;74.58;98845.78;5143553;27;26956;-80
2022/01/09 04:17:54;;;;;;;;;;;;;;;7.69;74.42;98848.97;5144154;27;27061;-80
2022/01/09 04:20:20;;;;;;;;;;;;;;;7.72;74.49;98859.09;5141140;27;27918;-81
2022/01/09 04:22:47;;;;;;;;;;;;;;;7.77;74.97;98862.31;5140443;27;26873;-80
2022/01/09 04:25:12;;;;;;;;;;;;;;;7.81;74.94;98865.56;5140554;27;27147;-80
2022/01/09 04:27:37;;;;;;;;;;;;;;;7.90;75.11;98872.03;5140311;27;26839;-81
2022/01/09 04:30:03;;;;;;;;;;;;;;;7.93;74.89;98884.75;5141192;27;35010;-80
2022/01/09 04:32:29;;;;;;;;;;;;;;;7.95;75.83;98888.09;5141296;27;26978;-81
2022/01/09 04:34:54;;;;;;;;;;;;;;;8.00;75.41;98892.13;5142364;27;26889;-81
2022/01/09 04:37:19;;;;;;;;;;;;;;;8.05;74.79;98894.47;5142939;27;27057;-80
2022/01/09 04:39:47;;;;;;;;;;;;;;;8.08;75.41;98899.47;5141795;27;45965;-81
2022/01/09 04:42:13;;;;;;;;;;;;;;;8.11;74.90;98899.34;5140952;27;26741;-80
2022/01/09 04:44:38;;;;;;;;;;;;;;;8.12;74.79;98906.16;5141511;27;27903;-79
2022/01/09 04:47:08;;;;;;;;;;;;;;;8.14;75.06;98914.63;5141026;27;46721;-79
2022/01/09 04:49:38;;;;;;;;;;;;;;;8.18;74.91;98923.88;5142747;27;27129;-80
2022/01/09 04:52:05;;;;;;;;;;;;;;;8.20;75.09;98934.94;5141412;27;26673;-80
2022/01/09 04:54:30;;;;;;;;;;;;;;;8.20;75.00;98945.22;5143239;27;26975;-80
2022/01/09 04:56:55;;;;;;;;;;;;;;;8.21;75.22;98941.75;5144396;27;53476;-79
2022/01/09 04:59:20;;;;;;;;;;;;;;;8.24;74.70;98957.03;5143608;27;27490;-80
2022/01/09 05:01:46;;;;;;;;;;;;;;;8.24;74.96;98962.19;5139740;27;55154;-80
2022/01/09 05:04:11;;;;;;;;;;;;;;;8.26;75.14;98970.66;5139485;27;56239;-80
2022/01/09 05:06:36;;;;;;;;;;;;;;;8.26;75.09;98984.34;5140105;27;54132;-80
2022/01/09 05:09:02;;;;;;;;;;;;;;;8.26;75.06;98986.91;5141833;27;26727;-79
2022/01/09 05:11:27;;;;;;;;;;;;;;;8.23;75.06;98991.38;5144568;27;27021;-79
2022/01/09 05:13:52;;;;;;;;;;;;;;;8.25;74.76;99004.97;5143689;27;56070;-80
2022/01/09 05:16:17;;;;;;;;;;;;;;;8.29;74.80;99003.97;5145686;27;53851;-81
2022/01/09 05:18:52;;;;;;;;;;;;;;;8.25;74.83;99010.94;5142687;27;26966;-80
2022/01/09 05:21:17;;;;;;;;;;;;;;;8.25;74.61;99017.84;5140877;27;26928;-80
2022/01/09 05:23:43;;;;;;;;;;;;;;;8.24;74.89;99019.59;5140889;27;27129;-80
2022/01/09 05:26:08;;;;;;;;;;;;;;;8.21;74.65;99032.56;5141099;27;26882;-80
2022/01/09 05:28:33;;;;;;;;;;;;;;;8.21;74.54;99040.28;5140366;27;51390;-80
2022/01/09 05:30:58;;;;;;;;;;;;;;;8.20;74.33;99037.78;5141294;27;27073;-79
2022/01/09 05:33:24;;;;;;;;;;;;;;;8.17;74.26;99048.22;5139677;27;55694;-80
2022/01/09 05:35:49;;;;;;;;;;;;;;;8.15;74.31;99050.00;5141128;27;26756;-80
2022/01/09 05:38:14;;;;;;;;;;;;;;;8.15;74.44;99060.28;5140186;27;57003;-80
2022/01/09 05:40:39;;;;;;;;;;;;;;;8.12;73.87;99071.56;5140303;27;27087;-80
2022/01/09 05:43:05;;;;;;;;;;;;;;;8.11;74.05;99074.19;5139695;27;27052;-80
2022/01/09 05:45:30;;;;;;;;;;;;;;;8.09;74.31;99081.13;5140927;27;26925;-80
2022/01/09 05:47:55;;;;;;;;;;;;;;;8.09;73.93;99086.28;5142762;27;27423;-80
2022/01/09 05:50:20;;;;;;;;;;;;;;;8.09;74.46;99096.56;5143281;27;26827;-79
2022/01/09 05:52:46;;;;;;;;;;;;;;;8.09;74.13;99094.00;5144178;27;26899;-79
2022/01/09 05:55:11;;;;;;;;;;;;;;;8.08;73.64;99108.56;5141489;27;54453;-78
2022/01/09 05:57:36;;;;;;;;;;;;;;;8.07;73.34;99108.63;5142927;27;27524;-79
2022/01/09 06:00:02;;;;;;;;;;;;;;;8.06;73.62;99106.97;5143898;27;27039;-79
2022/01/09 06:02:28;;;;;;;;;;;;;;;8.04;73.38;99108.75;5144990;27;27544;-79
2022/01/09 06:04:53;;;;;;;;;;;;;;;8.03;73.31;99117.38;5141388;27;54573;-79
2022/01/09 06:07:18;;;;;;;;;;;;;;;8.02;73.53;99121.66;5139270;27;47682;-80
2022/01/09 06:09:44;;;;;;;;;;;;;;;8.01;73.31;99125.16;5140033;27;26753;-80
2022/01/09 06:12:09;;;;;;;;;;;;;;;8.00;73.02;99132.94;5139850;27;26779;-81
2022/01/09 06:14:34;;;;;;;;;;;;;;;8.01;73.16;99144.88;5140673;27;26922;-81
2022/01/09 06:17:00;;;;;;;;;;;;;;;8.00;73.69;99149.19;5138727;27;57246;-81
2022/01/09 06:19:25;;;;;;;;;;;;;;;7.99;73.17;99151.81;5138758;27;54537;-80
2022/01/09 06:21:50;;;;;;;;;;;;;;;7.95;72.96;99160.56;5138834;27;57159;-81
2022/01/09 06:24:15;;;;;;;;;;;;;;;7.97;73.45;99166.47;5139622;27;54544;-79
2022/01/09 06:26:41;;;;;;;;;;;;;;;7.95;72.10;99165.72;5140822;27;56429;-80
2022/01/09 06:29:06;;;;;;;;;;;;;;;7.96;73.09;99173.34;5141149;27;26860;-80
2022/01/09 06:31:31;;;;;;;;;;;;;;;7.96;72.75;99177.66;5144040;27;27916;-80
2022/01/09 06:33:56;;;;;;;;;;;;;;;7.93;72.25;99177.78;5140017;27;53200;-81
2022/01/09 06:36:22;;;;;;;;;;;;;;;7.92;72.55;99183.81;5139400;27;56287;-80
2022/01/09 06:38:47;;;;;;;;;;;;;;;7.89;72.64;99191.66;5140469;27;26983;-80
2022/01/09 06:41:12;;;;;;;;;;;;;;;7.90;72.36;99193.34;5139974;27;27557;-80
2022/01/09 06:43:37;;;;;;;;;;;;;;;7.88;72.34;99200.25;5140348;27;26796;-80
2022/01/09 06:46:03;;;;;;;;;;;;;;;7.85;72.35;99197.81;5139962;27;26811;-80
2022/01/09 06:48:28;;;;;;;;;;;;;;;7.84;72.49;99214.13;5140113;27;26974;-80
2022/01/09 06:50:53;;;;;;;;;;;;;;;7.82;72.23;99221.06;5139921;27;27484;-80
2022/01/09 06:53:18;;;;;;;;;;;;;;;7.81;72.57;99224.53;5138757;27;55344;-80
2022/01/09 06:55:43;;;;;;;;;;;;;;;7.78;72.06;99225.50;5140167;27;49381;-79
2022/01/09 06:58:09;;;;;;;;;;;;;;;7.80;72.60;99233.16;5141180;27;26936;-79
2022/01/09 07:00:34;;;;;;;;;;;;;;;7.76;72.29;99233.25;5141059;27;26916;-79
2022/01/09 07:02:59;;;;;;;;;;;;;;;7.77;72.50;99245.22;5141543;27;26804;-79
2022/01/09 07:05:24;;;;;;;;;;;;;;;7.77;72.50;99254.66;5140641;27;26818;-80
2022/01/09 07:07:50;;;;;;;;;;;;;;;7.80;72.89;99258.84;5140512;27;33692;-80
2022/01/09 07:10:15;;;;;;;;;;;;;;;7.81;72.47;99266.47;5142610;27;52674;-81
2022/01/09 07:12:40;;;;;;;;;;;;;;;7.81;71.85;99275.91;5142611;27;49084;-80
2022/01/09 07:15:06;;;;;;;;;;;;;;;7.82;72.23;99277.59;5143759;27;27023;-80
2022/01/09 07:17:31;;;;;;;;;;;;;;;7.83;72.87;99284.44;5143463;27;26786;-80
2022/01/09 07:19:56;;;;;;;;;;;;;;;7.80;72.34;99289.69;5144814;27;27711;-79
2022/01/09 07:22:21;;;;;;;;;;;;;;;7.82;72.64;99293.88;5145066;27;26796;-79
2022/01/09 07:24:47;;;;;;;;;;;;;;;7.80;72.64;99294.84;5143738;27;57234;-80
2022/01/09 07:27:12;;;;;;;;;;;;;;;7.76;72.58;99307.78;5141960;27;55362;-80
2022/01/09 07:29:37;;;;;;;;;;;;;;;7.76;72.67;99305.19;5142243;27;57308;-81
2022/01/09 07:32:03;;;;;;;;;;;;;;;7.76;72.26;99309.53;5143024;27;26913;-80
2022/01/09 07:34:29;;;;;;;;;;;;;;;7.75;72.19;99308.69;5143015;27;26965;-79
2022/01/09 07:36:54;;;;;;;;;;;;;;;7.73;71.96;99315.59;5144404;27;29209;-79
2022/01/09 07:39:19;;;;;;;;;;;;;;;7.72;72.49;99324.19;5143772;27;27057;-80
2022/01/09 07:41:44;;;;;;;;;;;;;;;7.72;72.66;99326.78;5142793;27;26764;-80
2022/01/09 07:44:10;;;;;;;;;;;;;;;7.74;72.18;99332.72;5142315;27;27587;-79
2022/01/09 07:46:35;;;;;;;;;;;;;;;7.72;72.28;99334.47;5147752;27;30162;-79
2022/01/09 07:49:00;;;;;;;;;;;;;;;7.71;71.77;99340.53;5147785;27;32251;-79
2022/01/09 07:51:25;;;;;;;;;;;;;;;7.69;72.43;99349.16;5145234;27;26845;-79
2022/01/09 07:53:50;;;;;;;;;;;;;;;7.67;72.07;99351.81;5144218;27;26504;-79
2022/01/09 07:56:16;;;;;;;;;;;;;;;7.65;72.08;99353.59;5143851;27;27005;-79
2022/01/09 07:58:41;;;;;;;;;;;;;;;7.65;71.74;99353.59;5145158;27;28094;-79
2022/01/09 08:01:06;;;;;;;;;;;;;;;7.65;71.93;99353.59;5147303;27;34129;-79
2022/01/09 08:03:31;;;;;;;;;;;;;;;7.53;72.18;99342.94;5146481;27;26872;-79
2022/01/09 08:05:57;;;;;;;;;;;;;;;7.63;71.65;99368.25;5142845;27;26835;-80
2022/01/09 08:08:22;;;;;;;;;;;;;;;7.61;72.32;99372.56;5141787;27;27310;-80
2022/01/09 08:10:47;;;;;;;;;;;;;;;7.59;71.80;99369.25;5144284;27;26802;-79
2022/01/09 08:13:12;;;;;;;;;;;;;;;7.59;71.37;99383.81;5143826;27;48903;-79
2022/01/09 08:15:37;;;;;;;;;;;;;;;7.58;72.20;99388.09;5145169;27;26772;-79
2022/01/09 08:18:03;;;;;;;;;;;;;;;7.57;71.84;99399.28;5144225;27;26785;-79
2022/01/09 08:20:28;;;;;;;;;;;;;;;7.59;72.00;99388.94;5144665;27;38003;-79
2022/01/09 08:22:53;;;;;;;;;;;;;;;7.59;71.65;99389.78;5126386;27;27502;-79
2022/01/09 08:25:19;;;;;;;;;;;;;;;7.60;71.89;99406.06;5142658;27;26826;-80
2022/01/09 08:27:45;;;;;;;;;;;;;;;7.63;71.48;99416.22;5141327;27;26753;-80
2022/01/09 08:30:11;;;;;;;;;;;;;;;7.66;71.59;99416.94;5141754;27;26517;-80
2022/01/09 08:32:37;;;;;;;;;;;;;;;7.69;72.26;99416.81;5141389;27;26872;-80
2022/01/09 08:35:03;;;;;;;;;;;;;;;7.71;71.62;99409.91;5125417;27;26792;-79
2022/01/09 08:37:29;;;;;;;;;;;;;;;7.72;71.85;99416.72;5145111;27;28390;-79
2022/01/09 08:39:54;;;;;;;;;;;;;;;7.73;72.16;99428.69;5146325;27;44571;-79
2022/01/09 08:42:19;;;;;;;;;;;;;;;7.73;71.49;99428.69;5145980;27;55914;-79
2022/01/09 08:44:44;;;;;;;;;;;;;;;7.71;71.54;99420.19;5145583;27;26741;-78
2022/01/09 08:47:09;;;;;;;;;;;;;;;7.71;71.97;99430.47;5146059;27;26721;-79
2022/01/09 08:49:35;;;;;;;;;;;;;;;7.69;71.71;99432.25;5144708;27;26813;-80
2022/01/09 08:52:00;;;;;;;;;;;;;;;7.69;71.58;99439.13;5141752;27;27506;-80
2022/01/09 08:54:26;;;;;;;;;;;;;;;7.68;71.23;99440.88;5141682;27;27003;-80
2022/01/09 08:56:51;;;;;;;;;;;;;;;7.63;71.16;99440.19;5141623;27;27109;-79
2022/01/09 08:59:16;;;;;;;;;;;;;;;7.64;71.11;99449.56;5140447;27;37493;-81
2022/01/09 09:01:41;;;;;;;;;;;;;;;7.68;71.65;99451.16;5146994;27;27086;-80
2022/01/09 09:04:06;;;;;;;;;;;;;;;7.71;71.85;99461.31;5147105;27;44769;-80
2022/01/09 09:06:31;;;;;;;;;;;;;;;7.74;71.53;99468.91;5142084;27;37685;-80
2022/01/09 09:08:57;;;;;;;;;;;;;;;7.78;71.49;99473.06;5141744;27;26759;-79
2022/01/09 09:11:22;;;;;;;;;;;;;;;7.82;71.07;99478.09;5143631;27;27183;-79
2022/01/09 09:13:47;;;;;;;;;;;;;;;7.83;71.74;99490.06;5147803;27;26886;-79
2022/01/09 09:16:14;;;;;;;;;;;;;;;7.86;71.61;99489.94;5147697;27;26842;-79
2022/01/09 09:18:39;;;;;;;;;;;;;;;7.86;70.31;99489.94;5147111;27;27028;-79
2022/01/09 09:21:04;;;;;;;;;;;;;;;7.83;71.11;99500.34;5141120;27;26972;-80
2022/01/09 09:23:29;;;;;;;;;;;;;;;7.85;71.13;99513.94;5141071;27;26934;-80
2022/01/09 09:25:55;;;;;;;;;;;;;;;7.83;71.42;99515.75;5139653;27;54602;-79
2022/01/09 09:28:20;;;;;;;;;;;;;;;7.85;71.29;99519.09;5139624;27;50426;-80
2022/01/09 09:30:45;;;;;;;;;;;;;;;7.85;71.39;99526.81;5141287;27;27583;-80
2022/01/09 09:33:10;;;;;;;;;;;;;;;7.86;71.28;99525.94;5142474;27;26847;-79
2022/01/09 09:35:36;;;;;;;;;;;;;;;7.86;71.52;99536.19;5141538;27;26948;-80
2022/01/09 09:38:02;;;;;;;;;;;;;;;7.87;71.23;99532.75;5141051;27;26832;-80
2022/01/09 09:40:28;;;;;;;;;;;;;;;7.87;71.18;99540.47;5143643;27;27116;-79
2022/01/09 09:42:54;;;;;;;;;;;;;;;7.86;71.18;99543.91;5145890;27;26569;-79
2022/01/09 09:45:19;;;;;;;;;;;;;;;7.76;71.39;99535.69;5144843;27;27895;-79
2022/01/09 09:47:44;;;;;;;;;;;;;;;7.84;71.18;99543.09;5143596;27;26892;-79
2022/01/09 09:50:11;;;;;;;;;;;;;;;7.86;71.15;99557.63;5143753;27;46808;-79
2022/01/09 09:52:36;;;;;;;;;;;;;;;7.87;71.63;99558.47;5145135;27;26603;-79
2022/01/09 09:55:02;;;;;;;;;;;;;;;7.88;71.51;99560.13;5144952;27;26942;-79
2022/01/09 09:57:27;;;;;;;;;;;;;;;7.83;70.11;99556.88;5145006;27;26950;-80
2022/01/09 09:59:59;;;;;;;;;;;;;;;7.84;71.05;99561.09;5144305;27;26896;-79
2022/01/09 10:02:24;;;;;;;;;;;;;;;7.88;70.96;99570.41;5144125;27;26799;-79
2022/01/09 10:04:57;;;;;;;;;;;;;;;7.89;70.73;99574.66;5143847;27;34517;-79
2022/01/09 10:07:24;;;;;;;;;;;;;;;7.92;71.04;99577.13;5143236;27;26868;-78
2022/01/09 10:09:54;;;;;;;;;;;;;;;7.93;70.81;99583.94;5145249;27;27123;-78
2022/01/09 10:12:24;;;;;;;;;;;;;;;7.94;71.03;99593.34;5146299;27;26862;-78
2022/01/09 10:14:52;;;;;;;;;;;;;;;7.93;69.71;99591.66;5145641;27;26824;-79
2022/01/09 10:17:19;;;;;;;;;;;;;;;7.96;70.01;99594.13;5145598;27;26728;-78
2022/01/09 10:20:04;;;;;;;;;;;;;;;8.00;70.48;99600.84;5144656;27;27457;-78
2022/01/09 10:22:36;;;;;;;;;;;;;;;8.02;70.49;99601.66;5144620;27;26849;-79
2022/01/09 10:25:20;;;;;;;;;;;;;;;8.03;70.26;99601.56;5142435;27;26734;-79
2022/01/09 10:27:46;;;;;;;;;;;;;;;8.08;71.03;99604.00;5140308;27;26929;-79
2022/01/09 10:30:12;;;;;;;;;;;;;;;8.11;70.23;99609.03;5139646;27;27756;-80
2022/01/09 10:32:37;;;;;;;;;;;;;;;8.15;70.33;99608.03;5139364;27;26864;-79
2022/01/09 10:35:06;;;;;;;;;;;;;;;8.16;70.00;99612.28;5139717;27;27615;-79
2022/01/09 10:37:31;;;;;;;;;;;;;;;8.15;69.83;99618.31;5140099;27;26844;-79
2022/01/09 10:40:00;;;;;;;;;;;;;;;8.15;70.25;99621.72;5139436;27;26787;-79
2022/01/09 10:42:25;;;;;;;;;;;;;;;8.17;70.28;99622.50;5139503;27;26928;-79
2022/01/09 10:44:52;;;;;;;;;;;;;;;8.21;70.37;99625.84;5139178;27;27405;-79
2022/01/09 10:47:18;;;;;;;;;;;;;;;8.24;70.39;99625.72;5139074;27;26829;-79
2022/01/09 10:49:44;;;;;;;;;;;;;;;8.26;70.15;99636.78;5139622;27;26983;-79
2022/01/09 10:52:18;;;;;;;;;;;;;;;8.26;69.39;99629.06;5139323;27;27080;-79
2022/01/09 10:54:46;;;;;;;;;;;;;;;8.31;70.13;99642.66;5139145;27;27453;-79
2022/01/09 10:57:13;;;;;;;;;;;;;;;8.34;69.14;99646.84;5139327;27;26800;-80
2022/01/09 10:59:38;;;;;;;;;;;;;;;8.33;69.32;99651.16;5140120;27;26772;-79
2022/01/09 11:02:04;;;;;;;;;;;;;;;8.32;68.77;99643.50;5140840;27;26795;-80
2022/01/09 11:04:29;;;;;;;;;;;;;;;8.33;69.49;99656.31;5140223;27;27151;-79
2022/01/09 11:06:55;;;;;;;;;;;;;;;8.37;69.96;99657.88;5138932;27;26946;-80
2022/01/09 11:09:22;;;;;;;;;;;;;;;8.39;69.17;99661.25;5138945;27;26808;-79
2022/01/09 11:11:48;;;;;;;;;;;;;;;8.42;69.46;99666.28;5138451;27;27004;-80
2022/01/09 11:14:18;;;;;;;;;;;;;;;8.42;69.49;99671.44;5139019;27;27399;-79
2022/01/09 11:16:54;;;;;;;;;;;;;;;8.44;69.42;99679.94;5138957;27;27050;-79
2022/01/09 11:19:24;;;;;;;;;;;;;;;8.47;68.72;99679.81;5139673;27;26802;-79
2022/01/09 11:21:59;;;;;;;;;;;;;;;8.48;68.46;99686.66;5144724;27;26940;-79
2022/01/09 11:24:29;;;;;;;;;;;;;;;8.45;68.61;99691.06;5144231;27;27065;-79
2022/01/09 11:27:01;;;;;;;;;;;;;;;8.43;68.44;99688.56;5144962;27;26745;-79
2022/01/09 11:29:30;;;;;;;;;;;;;;;8.44;68.86;99685.06;5143369;27;27838;-79
2022/01/09 11:32:02;;;;;;;;;;;;;;;8.49;68.88;99690.91;5141303;27;26912;-79
2022/01/09 11:34:34;;;;;;;;;;;;;;;8.56;68.64;99694.09;5140970;27;27938;-79
2022/01/09 11:37:05;;;;;;;;;;;;;;;8.58;68.18;99693.19;5143374;27;26947;-79
2022/01/09 11:39:35;;;;;;;;;;;;;;;8.64;68.82;99708.41;5153947;27;26656;-79
2022/01/09 11:42:09;;;;;;;;;;;;;;;8.66;68.35;99695.50;5147600;27;26823;-79
2022/01/09 11:44:34;;;;;;;;;;;;;;;8.67;67.86;99713.44;5146333;27;26819;-79
2022/01/09 11:46:59;;;;;;;;;;;;;;;8.70;68.69;99718.47;5145384;27;26887;-78
2022/01/09 11:49:25;;;;;;;;;;;;;;;8.70;68.27;99723.63;5145288;27;27678;-78
2022/01/09 11:51:52;;;;;;;;;;;;;;;8.78;68.25;99719.94;5144328;27;26869;-78
2022/01/09 11:54:19;;;;;;;;;;;;;;;8.85;68.92;99731.72;5145564;27;27046;-79
2022/01/09 11:56:47;;;;;;;;;;;;;;;8.89;68.60;99728.13;5146844;27;26739;-78
2022/01/09 11:59:18;;;;;;;;;;;;;;;8.95;68.51;99722.78;5146232;27;26994;-79
2022/01/09 12:01:44;;;;;;;;;;;;;;;8.93;68.03;99729.69;5145917;27;26901;-79
2022/01/09 12:04:28;;;;;;;;;;;;;;;8.91;68.01;99732.34;5126716;27;28034;-78
2022/01/09 12:06:56;;;;;;;;;;;;;;;8.90;67.60;99730.66;5146014;27;26941;-78
2022/01/09 12:09:41;;;;;;;;;;;;;;;8.89;66.75;99736.69;5144903;27;27017;-79
2022/01/09 12:12:09;;;;;;;;;;;;;;;8.91;68.23;99741.78;5140993;27;26850;-80
2022/01/09 12:14:53;;;;;;;;;;;;;;;8.93;67.74;99742.56;5142098;27;27623;-79
2022/01/09 12:17:25;;;;;;;;;;;;;;;8.91;67.70;99752.94;5141699;27;26900;-79
2022/01/09 12:20:07;;;;;;;;;;;;;;;8.90;67.61;99743.53;5141928;27;26934;-79
2022/01/09 12:22:51;;;;;;;;;;;;;;;8.88;67.45;99741.91;5142013;27;26794;-79
2022/01/09 12:25:25;;;;;;;;;;;;;;;8.80;66.81;99754.22;5141453;27;27015;-79
2022/01/09 12:27:54;;;;;;;;;;;;;;;8.76;67.47;99750.06;5141623;27;26942;-79
2022/01/09 12:33:09;;;;;;;;;;;;;;;8.61;66.88;99760.00;5138356;27;26705;-80
2022/01/09 12:35:35;;;;;;;;;;;;;;;8.51;66.86;99761.16;5141725;27;27026;-79
2022/01/09 12:38:00;;;;;;;;;;;;;;;8.41;67.43;99766.66;5145593;27;26944;-79
2022/01/09 12:40:27;;;;;;;;;;;;;;;8.33;67.31;99774.63;5143564;27;26806;-79
2022/01/09 12:42:53;;;;;;;;;;;;;;;8.25;66.34;99786.88;5142538;27;26760;-80
2022/01/09 12:45:19;;;;;;;;;;;;;;;8.21;66.96;99790.47;5142124;27;27823;-79
2022/01/09 12:47:45;;;;;;;;;;;;;;;8.17;67.43;99788.88;5141875;27;26753;-79
2022/01/09 12:50:10;;;;;;;;;;;;;;;8.15;67.69;99781.19;5141996;27;26810;-79
2022/01/09 12:52:35;;;;;;;;;;;;;;;8.10;67.59;99779.63;5141496;27;36228;-81
2022/01/09 12:55:05;;;;;;;;;;;;;;;8.14;67.44;99778.66;5141557;27;26633;-80
2022/01/09 12:57:30;;;;;;;;;;;;;;;8.14;67.36;99788.94;5142013;27;26891;-81